DIAP/ABJ METAR and TAF weather

Enter ICAO airport designator
Station Type Date Time Source
DIAP METAR 2021/05/07 01:30 UTC NOAA

DIAP 070130Z 25004KT 9999 FEW012 26/25 Q1012 NOSIG


Station Type Date Time Source
DIAP Decoded METAR 2021/05/07 01:30 UTC NOAA

Abidjan, Cote d'Ivoire (DIAP) 05-15N 003-56W 8M
May 06, 2021 - 09:30 PM EDT / 2021.05.07 0130 UTC
Wind: from the WSW (250 degrees) at 5 MPH (4 KT):0
Visibility: greater than 7 mile(s):0
Sky conditions: mostly clear
Temperature: 78 F (26 C)
Dew Point: 77 F (25 C)
Relative Humidity: 94%
Pressure (altimeter): 29.88 in. Hg (1012 hPa)
ob: DIAP 070130Z 25004KT 9999 FEW012 26/25 Q1012 NOSIG
cycle: 1

Station Type Date Time Source
DIAP TAF 2021/05/07 00:00 UTC NOAA

TAF DIAP 062300Z 0700/0806 26006KT 9999 SCT012 PROB30
TEMPO 0715/0720 TS BKN012 FEW020CB

Example: see airport list